Otis, Colorado
Current Conditions -  °F | °C
As of 6:53 AM on Saturday 01 Nov 2014 (Local Time) from KAKO Reporting Station
Clear Clear  
Wind Chill: 19°   Ceiling: Unl
Heat Index: 27°   Visibility: 10mi
Dew Point: 23°   Wind: 7mph
Humidity: 85%   Direction: 180°S
Pressure: 29.97"   Gusts: NA
Location:  40.15°N, 102.96°W
Report Text: KAKO 011253Z AUTO 18006KT 10SM CLR M03/M05 A2997 RMK AO2 SLP163 T10281050
Loading
Personal Weather Stations






























Interactive Weather Map
Tropical Storm Tracking
New forecast layout! Learn more

10-Day Weather Forecast

Advertisements
Track Severe Weather on mobile